Share

Jennings, KS (67643)

Selden, KS (KKSSELDE2) Elev 2858 ft | 39.54 °N, 100.55 °W | Change Station

Current weather conditions updated 5 seconds ago

Overcast
Overcast
51.8 °F
Feels Like 51.8 °F
N
6.9
Wind Variable Wind from West
Gusts 10.1 mph
Sunrise 6:55 AM
Sunset 8:25 PM
Moon Waning Gibbous

Today is forecast to be nearly the same temperature as yesterday.

Pressure 29.92 in
Visibility 10.0 miles
Clouds Mostly Cloudy 7500 ft
Overcast 12000 ft
Dew Point 49 °F
Humidity 91%
Rainfall 0.00 in
Snow Depth Not available.
UV 0.0 out of 16
Pollen 7.90 out of 12
Air Quality Not available.
Flu Activity No Activity
METAR KHLC 210853Z AUTO 27006KT 10SM BKN075 OVC120 14/12 A2997 RMK AO2 SLP130 T01390117 50000

More Conditions Fewer Conditions

Pressure 29.92 in
Visibility 10.0 miles
Clouds Mostly Cloudy 7500 ft
Overcast 12000 ft
Dew Point 49 °F
Humidity 91%
Rainfall 0.00 in
Snow Depth Not available.
UV 0.0 out of 16
Pollen 7.90 out of 12
Air Quality Not available.
Flu Activity No Activity
METAR KHLC 210853Z AUTO 27006KT 10SM BKN075 OVC120 14/12 A2997 RMK AO2 SLP130 T01390117 50000

More Conditions Fewer Conditions

10-Day Weather Forecast

Almanac

Astronomy

Apr. 21, 2014 Rise Set
Actual Time 6:55 AM CDT 8:25 PM CDT
Civil Twilight 6:26 AM CDT 8:53 PM CDT
Nautical Twilight 5:52 AM CDT 9:27 PM CDT
Astronomical Twilight 5:16 AM CDT 10:04 PM CDT
Moon 1:56 AM CDT 12:23 PM CDT
Length of Visible Light 14h 27m
Length of Day
13h 30m
Tomorrow will be 2m 25s longer.
Waning Gibbous, 61% of the Moon is Illuminated
Today
Waning Gibbous
Apr 22
Last Quarter
Apr 29
New
May 6
First Quarter
May 14
Full

Today's Extremes

State Highs State Lows

Community

  • Snowy Robin
    Snowy Robin
  • Sun Pillar and Geese
    Sun Pillar and Geese
  • Showers on the Way
    Showers on the Way
  • Easter Morning Fog
    Easter Morning Fog
  • Easter Dance
    Easter Dance

WunderPhotos

Upload Photos

1,703,579 photos uploaded!

WunderBlogs® & News

Nearby

Snow Depth

Station Depth Elevation
No new snow has been reported.

Coastal Water Temperatures

Place Temperature
No Stations Reporting

Earthquake Activity

City Distance Mag. Time & Date
No recent earthquake activity has been reported nearby.
Minimum magnitude displayed is 2.5.

Nearby Weather Stations

Station Location Temp. Dew Point Humidity Wind Precip. Elev Updated Type
HADS PRAIRIE DOG CREEK AT COUNTY ROAD KS, Norcatur, KS 55 °F - - North  at  - 0.00 in / hr 2350 ft 2:45 AM CDT MADIS
Selden, KS, Selden, KS 51.8 °F 49 °F 91% West  at  6.9 mph 0.00 in / hr 2858 ft 4:07 AM CDT Rapid Fire
1 East, 2.5 South, Lenora, KS 53.0 °F - - WSW  at  8.0 mph 0.09 in / hr 2467 ft 4:03 AM CDT Normal

Show More Stations Show Fewer Stations

What do you think?

We're not finished. Please let us know what you like, what you don't like, and what you are still missing.